Time;durP1;ratioP1;P1;durP2;ratioP2;P2;SDS_P1;SDS_P2;PMS_P1;PMS_P2;Temp;Humidity;BMP_temperature;BMP_pressure;BME280_temperature;BME280_humidity;BME280_pressure;Samples;Min_cycle;Max_cycle;Signal;HPM_P1;HPM_P2
2022/10/17 00:02:20;;;;;;;3.50;0.40;;;23.20;62.80;;;;;;5049667;28;20041;-49
2022/10/17 00:04:47;;;;;;;0.55;0.30;;;23.20;62.80;;;;;;5049462;28;20041;-50
2022/10/17 00:07:14;;;;;;;2.45;1.17;;;23.20;62.80;;;;;;5049943;28;20083;-49
2022/10/17 00:09:42;;;;;;;0.30;0.30;;;23.20;62.80;;;;;;5049646;28;20045;-48
2022/10/17 00:12:11;;;;;;;0.30;0.30;;;23.20;62.80;;;;;;5049547;28;20124;-48
2022/10/17 00:14:38;;;;;;;0.85;0.43;;;23.20;62.80;;;;;;5049310;28;20037;-50
2022/10/17 00:17:05;;;;;;;0.93;0.93;;;23.20;62.80;;;;;;5049008;28;20073;-50
2022/10/17 00:19:32;;;;;;;1.95;0.50;;;23.20;62.80;;;;;;5048480;28;20575;-50
2022/10/17 00:21:59;;;;;;;0.22;0.20;;;23.20;62.80;;;;;;5049299;28;20037;-49
2022/10/17 00:24:26;;;;;;;0.90;0.30;;;23.20;62.70;;;;;;5049541;28;20391;-52
2022/10/17 00:26:53;;;;;;;0.60;0.60;;;23.20;62.70;;;;;;5048690;28;20502;-51
2022/10/17 00:29:22;;;;;;;0.85;0.75;;;23.20;62.70;;;;;;5047695;28;20521;-48
2022/10/17 00:31:49;;;;;;;0.22;0.22;;;23.20;62.70;;;;;;5047609;28;20246;-49
2022/10/17 00:34:16;;;;;;;0.50;0.20;;;23.20;62.70;;;;;;5048064;28;20476;-49
2022/10/17 00:36:43;;;;;;;2.58;0.30;;;23.20;62.70;;;;;;5048426;28;20147;-49
2022/10/17 00:39:10;;;;;;;0.40;0.20;;;23.20;62.70;;;;;;5047066;28;20073;-48
2022/10/17 00:41:38;;;;;;;1.27;0.43;;;23.20;62.70;;;;;;5049236;28;20545;-48
2022/10/17 00:44:08;;;;;;;1.73;0.30;;;23.20;63.20;;;;;;5047835;28;20072;-48
2022/10/17 00:46:39;;;;;;;1.58;0.20;;;23.20;62.70;;;;;;5047552;28;20126;-49
2022/10/17 00:49:11;;;;;;;0.30;0.30;;;23.20;62.70;;;;;;5047041;28;20068;-48
2022/10/17 00:51:41;;;;;;;2.83;0.40;;;23.20;62.70;;;;;;5041908;28;20041;-50
2022/10/17 00:54:10;;;;;;;1.05;1.05;;;23.20;62.70;;;;;;5041922;28;20049;-50
2022/10/17 00:56:39;;;;;;;0.30;0.30;;;23.20;62.70;;;;;;5047792;28;20700;-51
2022/10/17 00:59:08;;;;;;;0.40;0.40;;;23.20;62.70;;;;;;5048899;28;20081;-48
2022/10/17 01:01:40;;;;;;;1.52;0.60;;;23.20;62.70;;;;;;5047016;28;20052;-49
2022/10/17 01:04:08;;;;;;;0.30;0.30;;;23.20;62.70;;;;;;5048722;28;20045;-52
2022/10/17 01:06:35;;;;;;;0.85;0.35;;;23.20;62.70;;;;;;5048575;28;20041;-48
2022/10/17 01:09:02;;;;;;;0.20;0.20;;;23.20;62.70;;;;;;5048060;28;20469;-52
2022/10/17 01:11:36;;;;;;;1.40;0.40;;;23.20;62.60;;;;;;5048356;28;20056;-52
2022/10/17 01:14:08;;;;;;;0.40;0.40;;;23.20;62.60;;;;;;5048232;28;20041;-49
2022/10/17 01:16:44;;;;;;;0.50;0.40;;;23.20;62.60;;;;;;5047983;28;20391;-48
2022/10/17 01:19:35;;;;;;;3.25;0.25;;;23.20;63.20;;;;;;5047374;28;20052;-49
2022/10/17 01:22:09;;;;;;;0.40;0.40;;;23.20;62.60;;;;;;5042159;28;20124;-51
2022/10/17 01:25:04;;;;;;;0.82;0.20;;;23.20;62.60;;;;;;5046903;28;20142;-49
2022/10/17 01:27:52;;;;;;;0.30;0.30;;;23.20;62.50;;;;;;5047433;28;20063;-49
2022/10/17 01:30:56;;;;;;;0.93;0.30;;;23.20;62.60;;;;;;5047426;28;20072;-55
2022/10/17 01:33:33;;;;;;;1.25;0.35;;;23.20;62.50;;;;;;5047630;28;20528;-53
2022/10/17 01:36:08;;;;;;;1.27;0.20;;;23.10;62.60;;;;;;5037665;28;20192;-51
2022/10/17 01:38:42;;;;;;;0.40;0.20;;;23.10;62.60;;;;;;5040993;28;20506;-56
2022/10/17 01:41:17;;;;;;;1.77;0.32;;;23.10;62.60;;;;;;5047276;28;20064;-53
2022/10/17 01:43:49;;;;;;;0.43;0.20;;;23.20;62.60;;;;;;5047295;28;20041;-53
2022/10/17 01:46:24;;;;;;;1.27;0.20;;;23.20;62.60;;;;;;5046545;28;20187;-54
2022/10/17 01:48:53;;;;;;;0.30;0.30;;;23.10;62.50;;;;;;5048381;28;20411;-53
2022/10/17 01:51:27;;;;;;;0.43;0.43;;;23.10;62.60;;;;;;5046902;28;20036;-51
2022/10/17 01:53:58;;;;;;;0.98;0.40;;;23.10;62.50;;;;;;5046954;28;20122;-51
2022/10/17 01:56:27;;;;;;;0.70;0.32;;;23.20;62.60;;;;;;5048114;28;20048;-51
2022/10/17 01:58:58;;;;;;;1.60;0.20;;;23.10;62.50;;;;;;5046737;28;20120;-53
2022/10/17 02:01:29;;;;;;;0.40;0.38;;;23.10;62.50;;;;;;5046735;28;20045;-52
2022/10/17 02:03:58;;;;;;;3.55;0.47;;;23.10;62.50;;;;;;5041922;28;20045;-52
2022/10/17 02:06:25;;;;;;;1.50;0.28;;;23.10;62.50;;;;;;5043595;28;20037;-50
2022/10/17 02:08:52;;;;;;;1.15;0.20;;;23.10;62.50;;;;;;5030895;28;20049;-52
2022/10/17 02:11:23;;;;;;;1.00;0.20;;;23.10;62.50;;;;;;5044259;28;20051;-53
2022/10/17 02:14:04;;;;;;;0.88;0.20;;;23.10;62.50;;;;;;5047250;28;20045;-51
2022/10/17 02:16:39;;;;;;;0.73;0.40;;;23.10;62.40;;;;;;5051481;28;20060;-48
2022/10/17 02:19:22;;;;;;;0.30;0.20;;;23.10;62.40;;;;;;5052822;28;20065;-49
2022/10/17 02:21:55;;;;;;;0.88;0.17;;;23.10;62.40;;;;;;5033121;28;20545;-48
2022/10/17 02:24:29;;;;;;;1.20;0.30;;;23.10;62.40;;;;;;5050215;28;20043;-50
2022/10/17 02:27:05;;;;;;;1.05;0.10;;;23.10;62.90;;;;;;5050659;28;20052;-48
2022/10/17 02:29:36;;;;;;;2.47;0.30;;;23.10;62.40;;;;;;5020698;28;20050;-53
2022/10/17 02:32:08;;;;;;;0.90;0.40;;;23.10;62.40;;;;;;5051096;28;20048;-53
2022/10/17 02:34:40;;;;;;;0.30;0.17;;;23.10;62.40;;;;;;5051172;28;20033;-51
2022/10/17 02:37:10;;;;;;;0.75;0.20;;;23.10;62.40;;;;;;5049855;28;20056;-50
2022/10/17 02:39:40;;;;;;;1.05;0.20;;;23.10;62.40;;;;;;5050297;28;20098;-49
2022/10/17 02:42:10;;;;;;;0.88;0.45;;;23.10;62.30;;;;;;5051609;28;20060;-53
2022/10/17 02:44:40;;;;;;;2.03;0.30;;;23.10;62.30;;;;;;5049767;28;20413;-52
2022/10/17 02:47:17;;;;;;;0.20;0.10;;;23.10;62.30;;;;;;5049740;28;20049;-50
2022/10/17 02:49:50;;;;;;;2.63;0.10;;;23.10;62.30;;;;;;5050784;28;20040;-49
2022/10/17 02:52:22;;;;;;;2.53;0.38;;;23.10;62.20;;;;;;5051132;28;20041;-51
2022/10/17 02:54:54;;;;;;;0.75;0.30;;;23.10;62.20;;;;;;5049799;28;20124;-50
2022/10/17 02:57:27;;;;;;;0.85;0.20;;;23.10;62.20;;;;;;5043646;28;20083;-53
2022/10/17 02:59:57;;;;;;;3.17;0.20;;;23.10;62.20;;;;;;5049789;28;20045;-48
2022/10/17 03:02:25;;;;;;;2.05;0.50;;;23.10;62.20;;;;;;5045791;28;20045;-52
2022/10/17 03:04:53;;;;;;;0.50;0.20;;;23.10;62.20;;;;;;5050618;28;20047;-53
2022/10/17 03:07:20;;;;;;;1.85;0.45;;;23.10;62.20;;;;;;5050471;28;20082;-48
2022/10/17 03:09:47;;;;;;;0.60;0.20;;;23.10;62.10;;;;;;5049346;28;20140;-49
2022/10/17 03:12:14;;;;;;;1.50;0.20;;;23.10;62.10;;;;;;5049595;28;20037;-48
2022/10/17 03:14:41;;;;;;;1.58;0.30;;;23.10;62.10;;;;;;5049192;28;20044;-49
2022/10/17 03:17:08;;;;;;;4.15;0.40;;;23.10;62.10;;;;;;5048566;28;20712;-52
2022/10/17 03:19:37;;;;;;;0.80;0.65;;;23.10;62.10;;;;;;5048841;28;20052;-52
2022/10/17 03:22:04;;;;;;;1.30;1.20;;;23.10;62.10;;;;;;5050595;28;20106;-51
2022/10/17 03:24:33;;;;;;;2.85;0.70;;;23.10;62.10;;;;;;5049277;28;20041;-48
2022/10/17 03:27:00;;;;;;;0.93;0.50;;;23.10;62.20;;;;;;5049086;28;20463;-53
2022/10/17 03:29:27;;;;;;;1.08;0.15;;;23.10;62.10;;;;;;5049068;28;20073;-49
2022/10/17 03:31:54;;;;;;;3.00;0.15;;;23.10;62.00;;;;;;5050153;28;20044;-52
2022/10/17 03:34:21;;;;;;;1.25;0.25;;;23.10;62.00;;;;;;5048800;28;20053;-50
2022/10/17 03:36:50;;;;;;;0.93;0.20;;;23.10;62.00;;;;;;5048980;28;20037;-52
2022/10/17 03:39:18;;;;;;;2.70;0.22;;;23.10;62.00;;;;;;5048650;28;20077;-49
2022/10/17 03:41:45;;;;;;;2.22;0.32;;;23.10;62.00;;;;;;5044474;28;20049;-49
2022/10/17 03:44:12;;;;;;;3.50;0.10;;;23.10;62.00;;;;;;5050159;28;20575;-52
2022/10/17 03:46:40;;;;;;;0.60;0.22;;;23.10;61.90;;;;;;5048667;28;20079;-49
2022/10/17 03:49:07;;;;;;;0.60;0.60;;;23.10;61.90;;;;;;5048306;28;20045;-53
2022/10/17 03:51:34;;;;;;;0.98;0.32;;;23.00;61.90;;;;;;5048780;28;20076;-48
2022/10/17 03:54:06;;;;;;;0.30;0.30;;;23.10;61.90;;;;;;5048252;28;20131;-50
2022/10/17 03:56:33;;;;;;;1.05;0.20;;;23.10;61.90;;;;;;5048465;28;20041;-50
2022/10/17 03:59:06;;;;;;;3.30;0.30;;;23.10;61.90;;;;;;5048874;28;20045;-48
2022/10/17 04:01:36;;;;;;;0.50;0.40;;;23.10;61.90;;;;;;5050116;28;20048;-53
2022/10/17 04:04:03;;;;;;;0.65;0.30;;;23.10;61.90;;;;;;5049514;28;20053;-52
2022/10/17 04:06:33;;;;;;;3.97;0.50;;;23.10;61.80;;;;;;5048249;28;20398;-50
2022/10/17 04:09:00;;;;;;;1.20;0.30;;;23.10;61.80;;;;;;5048516;28;20072;-49
2022/10/17 04:11:36;;;;;;;1.27;0.20;;;23.10;61.80;;;;;;5048024;28;20075;-50
2022/10/17 04:14:04;;;;;;;0.43;0.40;;;23.10;61.70;;;;;;5048874;28;20041;-48
2022/10/17 04:16:31;;;;;;;0.75;0.25;;;23.10;61.70;;;;;;5047545;28;20505;-49
2022/10/17 04:19:05;;;;;;;0.73;0.30;;;23.10;61.70;;;;;;5030885;28;20052;-49
2022/10/17 04:21:40;;;;;;;1.63;0.20;;;23.10;61.70;;;;;;5047649;28;20045;-51
2022/10/17 04:24:11;;;;;;;1.05;0.75;;;23.10;61.70;;;;;;5043008;28;20041;-50
2022/10/17 04:27:00;;;;;;;2.35;0.10;;;23.10;61.70;;;;;;5041285;28;20076;-52
2022/10/17 04:29:29;;;;;;;2.53;0.28;;;23.10;61.60;;;;;;5046834;28;20103;-49
2022/10/17 04:32:05;;;;;;;0.40;0.20;;;23.10;61.70;;;;;;5047345;28;20045;-49
2022/10/17 04:34:49;;;;;;;2.63;0.40;;;23.10;61.60;;;;;;5047626;28;20053;-49
2022/10/17 04:37:17;;;;;;;1.40;0.20;;;23.00;61.60;;;;;;5047680;28;20049;-49
2022/10/17 04:39:46;;;;;;;0.75;0.15;;;23.00;61.50;;;;;;5047457;28;20783;-50
2022/10/17 04:42:14;;;;;;;3.75;0.38;;;23.00;61.50;;;;;;5048812;28;20052;-49
2022/10/17 04:44:41;;;;;;;2.10;0.20;;;23.00;61.50;;;;;;5047682;28;20067;-49
2022/10/17 04:47:09;;;;;;;0.40;0.40;;;23.00;61.50;;;;;;5048555;28;20425;-49
2022/10/17 04:49:39;;;;;;;3.13;0.30;;;23.10;61.50;;;;;;5030519;28;20123;-49
2022/10/17 04:52:09;;;;;;;1.05;0.50;;;23.00;61.40;;;;;;5046446;28;20456;-49
2022/10/17 04:54:42;;;;;;;0.30;0.30;;;23.10;61.40;;;;;;5040794;28;20063;-51
2022/10/17 04:57:11;;;;;;;1.40;0.25;;;23.00;61.30;;;;;;5039515;28;20516;-49
2022/10/17 04:59:41;;;;;;;0.65;0.20;;;23.10;61.30;;;;;;5040082;28;20041;-52
2022/10/17 05:02:31;;;;;;;0.40;0.30;;;23.10;61.30;;;;;;5045613;28;20057;-50
2022/10/17 05:04:59;;;;;;;2.00;0.93;;;23.00;61.20;;;;;;5046013;28;20039;-52
2022/10/17 05:07:26;;;;;;;0.22;0.10;;;23.00;61.20;;;;;;5046452;28;20045;-50
2022/10/17 05:10:04;;;;;;;1.15;0.20;;;23.00;61.20;;;;;;5047488;28;20049;-49
2022/10/17 05:12:33;;;;;;;4.38;0.32;;;23.00;61.20;;;;;;5047154;28;20120;-49
2022/10/17 05:15:01;;;;;;;1.85;0.28;;;23.00;61.20;;;;;;5046243;28;20033;-51
2022/10/17 05:17:29;;;;;;;1.17;0.20;;;23.00;61.30;;;;;;5047241;28;20480;-48
2022/10/17 05:19:56;;;;;;;3.47;0.65;;;23.00;61.20;;;;;;5046984;28;20444;-51
2022/10/17 05:22:23;;;;;;;0.77;0.10;;;23.00;61.20;;;;;;5046940;28;20049;-52
2022/10/17 05:24:50;;;;;;;0.63;0.10;;;23.00;61.20;;;;;;5046561;28;20045;-49
2022/10/17 05:27:17;;;;;;;0.73;0.10;;;23.00;61.20;;;;;;5046509;28;20152;-48
2022/10/17 05:29:45;;;;;;;0.20;0.20;;;23.00;61.20;;;;;;5046765;28;20045;-50
2022/10/17 05:32:22;;;;;;;0.57;0.20;;;23.00;61.80;;;;;;5048436;28;20120;-49
2022/10/17 05:34:49;;;;;;;3.38;0.20;;;23.00;61.20;;;;;;5048174;28;20099;-50
2022/10/17 05:37:16;;;;;;;0.20;0.10;;;23.00;61.20;;;;;;5041508;28;20037;-51
2022/10/17 05:39:47;;;;;;;0.30;0.20;;;23.00;61.30;;;;;;5046133;28;20075;-49
2022/10/17 05:42:14;;;;;;;2.47;0.20;;;23.00;61.30;;;;;;5046185;28;20479;-49
2022/10/17 05:44:41;;;;;;;2.90;0.40;;;23.00;61.20;;;;;;5046479;28;20033;-48
2022/10/17 05:47:09;;;;;;;2.50;0.30;;;23.00;61.20;;;;;;5030180;28;20048;-50
2022/10/17 05:49:37;;;;;;;2.08;0.20;;;23.00;61.30;;;;;;5046545;28;20049;-49
2022/10/17 05:52:05;;;;;;;0.90;0.20;;;23.00;61.20;;;;;;5048234;28;20052;-48
2022/10/17 05:54:39;;;;;;;2.25;0.75;;;23.00;61.80;;;;;;5040510;28;20049;-51
2022/10/17 05:57:06;;;;;;;0.82;0.20;;;23.00;61.30;;;;;;5040092;28;20059;-49
2022/10/17 05:59:34;;;;;;;2.80;0.43;;;23.00;61.60;;;;;;5026783;28;20076;-48
2022/10/17 06:02:12;;;;;;;1.75;0.20;;;23.00;61.40;;;;;;5042128;28;20125;-49
2022/10/17 06:04:44;;;;;;;1.58;0.10;;;23.00;61.40;;;;;;5047998;28;20140;-51
2022/10/17 06:07:12;;;;;;;1.55;0.52;;;23.00;61.40;;;;;;5046294;28;20128;-49
2022/10/17 06:09:39;;;;;;;2.20;0.28;;;23.00;61.40;;;;;;5046642;28;20469;-49
2022/10/17 06:12:07;;;;;;;1.95;0.10;;;23.00;61.40;;;;;;5046451;28;20493;-49
2022/10/17 06:14:34;;;;;;;0.95;0.60;;;23.00;61.50;;;;;;5045491;28;20052;-51
2022/10/17 06:17:03;;;;;;;0.20;0.20;;;23.00;61.50;;;;;;5046301;28;20095;-54
2022/10/17 06:19:30;;;;;;;1.23;0.73;;;23.00;61.50;;;;;;5046936;28;20087;-50
2022/10/17 06:21:59;;;;;;;2.38;0.13;;;23.00;61.50;;;;;;5046637;28;20069;-49
2022/10/17 06:24:28;;;;;;;0.35;0.20;;;23.00;61.50;;;;;;5046327;28;20052;-50
2022/10/17 06:26:55;;;;;;;1.52;0.20;;;23.00;61.50;;;;;;5046284;28;20063;-49
2022/10/17 06:29:22;;;;;;;1.58;0.22;;;23.00;61.50;;;;;;5046331;28;20052;-52
2022/10/17 06:31:52;;;;;;;0.40;0.38;;;23.00;61.50;;;;;;5046271;28;20616;-50
2022/10/17 06:34:20;;;;;;;0.98;0.20;;;23.00;61.50;;;;;;5045710;28;20037;-50
2022/10/17 06:36:47;;;;;;;1.98;0.20;;;23.00;61.50;;;;;;5045775;28;20498;-50
2022/10/17 06:39:16;;;;;;;0.20;0.10;;;23.00;61.50;;;;;;5046474;28;20414;-48
2022/10/17 06:41:50;;;;;;;2.40;0.22;;;23.00;61.50;;;;;;5047441;28;20044;-51
2022/10/17 06:44:21;;;;;;;1.85;0.20;;;23.00;61.50;;;;;;5046715;28;20043;-53
2022/10/17 06:47:17;;;;;;;2.03;0.25;;;23.00;61.60;;;;;;5040042;28;20037;-50
2022/10/17 06:49:44;;;;;;;2.40;0.20;;;23.00;61.60;;;;;;5046347;28;20060;-50
2022/10/17 06:52:19;;;;;;;1.10;0.20;;;23.00;61.60;;;;;;5050055;28;20045;-50
2022/10/17 06:55:02;;;;;;;3.30;1.10;;;23.00;61.60;;;;;;5049748;28;20554;-49
2022/10/17 06:57:41;;;;;;;4.88;0.68;;;23.00;61.60;;;;;;5050719;28;20412;-49
2022/10/17 07:00:40;;;;;;;0.47;0.30;;;23.00;61.60;;;;;;5043361;28;20048;-50
2022/10/17 07:03:07;;;;;;;0.52;0.20;;;23.00;61.70;;;;;;5049436;28;20056;-49
2022/10/17 07:05:34;;;;;;;3.08;1.48;;;23.00;61.70;;;;;;5051098;28;20048;-49
2022/10/17 07:08:01;;;;;;;2.25;0.22;;;23.00;61.60;;;;;;5050884;28;20148;-48
2022/10/17 07:10:30;;;;;;;0.90;0.20;;;23.00;61.60;;;;;;5050514;28;20112;-50
2022/10/17 07:12:57;;;;;;;1.65;0.22;;;23.00;61.60;;;;;;5049444;28;20452;-49
2022/10/17 07:15:24;;;;;;;1.40;0.40;;;23.00;61.60;;;;;;5050662;28;20043;-49
2022/10/17 07:17:51;;;;;;;0.30;0.10;;;23.00;61.60;;;;;;5050367;28;20457;-49
2022/10/17 07:20:19;;;;;;;7.90;0.80;;;23.00;61.60;;;;;;5049296;28;20321;-50
2022/10/17 07:22:46;;;;;;;0.85;0.30;;;23.00;61.60;;;;;;5049408;28;20467;-50
2022/10/17 07:25:13;;;;;;;0.80;0.57;;;23.00;61.60;;;;;;5049036;28;20037;-48
2022/10/17 07:27:54;;;;;;;0.98;0.20;;;23.00;61.60;;;;;;5049076;28;20055;-52
2022/10/17 07:30:22;;;;;;;1.02;0.38;;;23.10;61.60;;;;;;5049339;28;20044;-52
2022/10/17 07:33:03;;;;;;;1.85;0.15;;;23.10;61.70;;;;;;5045584;28;20040;-49
2022/10/17 07:35:31;;;;;;;2.88;0.20;;;23.10;61.60;;;;;;5049406;28;20045;-51
2022/10/17 07:37:58;;;;;;;2.70;0.88;;;23.10;61.60;;;;;;5050816;28;20589;-50
2022/10/17 07:40:27;;;;;;;2.65;0.20;;;23.10;61.60;;;;;;5049123;28;20047;-53
2022/10/17 07:42:55;;;;;;;2.50;0.13;;;23.10;61.60;;;;;;5033237;28;20075;-50
2022/10/17 07:45:26;;;;;;;2.25;0.38;;;23.10;61.50;;;;;;5041894;28;20072;-54
2022/10/17 07:47:56;;;;;;;1.48;0.50;;;23.10;61.50;;;;;;5049006;28;20460;-52
2022/10/17 07:50:23;;;;;;;1.48;0.32;;;23.10;61.50;;;;;;5049105;28;20047;-49
2022/10/17 07:52:50;;;;;;;1.67;0.70;;;23.20;61.50;;;;;;5050029;28;20048;-49
2022/10/17 07:55:17;;;;;;;0.20;0.20;;;23.20;61.50;;;;;;5049625;28;20045;-51
2022/10/17 07:57:44;;;;;;;0.50;0.20;;;23.20;61.40;;;;;;5050488;28;20041;-50
2022/10/17 08:00:13;;;;;;;0.68;0.40;;;23.20;61.30;;;;;;5050294;28;20444;-51
2022/10/17 08:02:41;;;;;;;0.82;0.45;;;23.20;61.30;;;;;;5048695;28;20037;-51
2022/10/17 08:05:08;;;;;;;0.90;0.22;;;23.20;61.30;;;;;;5050687;28;20139;-51
2022/10/17 08:07:35;;;;;;;2.08;0.20;;;23.20;61.30;;;;;;5043291;28;20048;-49
2022/10/17 08:10:03;;;;;;;4.82;0.38;;;23.20;61.30;;;;;;5049865;28;20485;-51
2022/10/17 08:12:33;;;;;;;3.70;0.60;;;23.20;61.40;;;;;;5049790;28;20041;-49
2022/10/17 08:15:00;;;;;;;1.27;0.50;;;23.20;61.30;;;;;;5049490;28;20092;-51
2022/10/17 08:17:28;;;;;;;1.08;0.52;;;23.20;61.30;;;;;;5049447;28;20040;-49
2022/10/17 08:19:55;;;;;;;0.57;0.25;;;23.20;61.30;;;;;;5049779;28;20055;-49
2022/10/17 08:22:22;;;;;;;1.52;0.28;;;23.30;61.40;;;;;;5050018;28;20041;-49
2022/10/17 08:24:49;;;;;;;2.05;0.20;;;23.30;61.40;;;;;;5049627;28;20114;-50
2022/10/17 08:27:22;;;;;;;2.50;0.20;;;23.30;61.40;;;;;;5049689;28;20046;-50
2022/10/17 08:29:51;;;;;;;0.40;0.10;;;23.30;61.40;;;;;;5049402;28;20048;-50
2022/10/17 08:32:19;;;;;;;0.88;0.20;;;23.30;61.40;;;;;;5049483;28;20119;-49
2022/10/17 08:34:47;;;;;;;0.52;0.52;;;23.30;61.40;;;;;;5049330;28;20045;-49
2022/10/17 08:37:14;;;;;;;2.72;0.20;;;23.30;61.30;;;;;;5042496;28;20409;-52
2022/10/17 08:39:42;;;;;;;0.80;0.38;;;23.40;61.30;;;;;;5048684;28;20593;-49
2022/10/17 08:42:29;;;;;;;0.93;0.20;;;23.30;61.30;;;;;;5049324;28;20036;-50
2022/10/17 08:45:06;;;;;;;1.10;0.20;;;23.40;61.20;;;;;;5049326;28;20138;-55
2022/10/17 08:47:37;;;;;;;2.38;0.28;;;23.40;61.20;;;;;;5048943;28;20041;-54
2022/10/17 08:50:07;;;;;;;0.88;0.20;;;23.40;61.20;;;;;;5035614;28;20156;-51
2022/10/17 08:52:39;;;;;;;3.83;0.50;;;23.40;61.20;;;;;;5048552;28;20402;-49
2022/10/17 08:55:15;;;;;;;1.17;0.30;;;23.40;61.20;;;;;;5049039;28;20120;-52
2022/10/17 08:57:42;;;;;;;0.85;0.20;;;23.50;61.20;;;;;;5049111;28;20068;-52
2022/10/17 09:00:16;;;;;;;1.35;0.22;;;23.50;61.20;;;;;;5049512;28;20460;-48
2022/10/17 09:02:54;;;;;;;0.63;0.10;;;23.50;61.10;;;;;;5041236;28;20088;-48
2022/10/17 09:05:28;;;;;;;2.25;0.65;;;23.50;61.60;;;;;;5048829;28;20037;-51
2022/10/17 09:08:12;;;;;;;2.78;0.50;;;23.50;61.10;;;;;;5048390;28;20110;-48
2022/10/17 09:10:51;;;;;;;0.88;0.40;;;23.50;61.10;;;;;;5047577;28;20049;-49
2022/10/17 09:13:28;;;;;;;0.60;0.10;;;23.50;61.00;;;;;;5048916;28;20047;-49
2022/10/17 09:16:10;;;;;;;2.20;0.20;;;23.50;61.10;;;;;;5035230;28;20044;-48
2022/10/17 09:18:40;;;;;;;1.17;0.20;;;23.60;61.10;;;;;;5048949;28;20548;-49
2022/10/17 09:21:20;;;;;;;1.80;0.77;;;23.60;61.20;;;;;;5048354;28;20509;-48
2022/10/17 09:23:50;;;;;;;0.85;0.55;;;23.60;61.10;;;;;;5048567;28;20128;-51
2022/10/17 09:26:17;;;;;;;0.50;0.10;;;23.60;61.10;;;;;;5043764;28;20040;-54
2022/10/17 09:28:51;;;;;;;0.60;0.47;;;23.60;61.10;;;;;;5048592;28;20061;-51
2022/10/17 09:31:22;;;;;;;1.38;0.20;;;23.60;61.10;;;;;;5048796;28;20663;-49
2022/10/17 09:33:51;;;;;;;2.95;0.30;;;23.60;61.10;;;;;;5048378;28;20045;-49
2022/10/17 09:36:21;;;;;;;3.10;0.32;;;23.60;61.10;;;;;;5048303;28;20060;-50
2022/10/17 09:38:51;;;;;;;2.28;0.20;;;23.60;61.20;;;;;;5048471;28;20044;-50
2022/10/17 09:41:22;;;;;;;1.75;0.73;;;23.60;61.30;;;;;;5048752;28;20051;-49
2022/10/17 09:43:52;;;;;;;2.08;0.30;;;23.60;61.30;;;;;;5042264;28;20071;-50
2022/10/17 09:46:26;;;;;;;0.43;0.15;;;23.60;61.30;;;;;;5042199;28;20037;-51
2022/10/17 09:48:58;;;;;;;0.77;0.30;;;23.60;61.30;;;;;;5048258;28;20541;-54
2022/10/17 09:51:27;;;;;;;4.32;0.20;;;23.60;61.40;;;;;;5047860;28;20053;-50
2022/10/17 09:53:56;;;;;;;3.38;0.52;;;23.60;61.40;;;;;;5048621;28;20521;-50
2022/10/17 09:56:23;;;;;;;3.13;0.30;;;23.60;61.50;;;;;;5048096;28;20041;-53
2022/10/17 09:58:53;;;;;;;4.53;0.47;;;23.60;61.50;;;;;;5046228;28;20041;-51
2022/10/17 10:01:23;;;;;;;3.30;0.20;;;23.60;61.50;;;;;;5044191;28;20044;-50
2022/10/17 10:04:09;;;;;;;3.80;0.43;;;23.60;61.50;;;;;;5048020;28;20041;-53
2022/10/17 10:06:37;;;;;;;;;;;23.60;61.40;;;;;;5047869;28;20132;-49
2022/10/17 10:09:06;;;;;;;0.85;0.30;;;23.50;61.40;;;;;;5047969;28;19925;-52
2022/10/17 10:11:47;;;;;;;2.50;0.45;;;23.50;61.60;;;;;;5048104;28;20033;-49
2022/10/17 10:14:21;;;;;;;0.68;0.25;;;23.60;61.60;;;;;;5042197;28;20037;-50
2022/10/17 10:16:49;;;;;;;1.77;0.20;;;23.60;61.60;;;;;;5042779;28;20513;-49
2022/10/17 10:19:21;;;;;;;4.55;0.47;;;23.60;61.60;;;;;;5047535;28;20102;-49
2022/10/17 10:21:55;;;;;;;0.17;0.10;;;23.60;61.70;;;;;;5048141;28;20122;-52
2022/10/17 10:24:24;;;;;;;1.33;0.52;;;23.60;61.70;;;;;;5047901;28;20037;-49
2022/10/17 10:26:53;;;;;;;0.70;0.30;;;23.60;61.70;;;;;;5048991;28;20037;-49
2022/10/17 10:29:25;;;;;;;0.68;0.13;;;23.60;61.70;;;;;;5051755;28;20520;-49
2022/10/17 10:31:53;;;;;;;2.92;0.32;;;23.60;61.70;;;;;;5052050;28;20096;-48
2022/10/17 10:34:24;;;;;;;0.43;0.40;;;23.60;61.80;;;;;;5051157;28;20036;-48
2022/10/17 10:37:03;;;;;;;1.10;0.20;;;23.60;61.80;;;;;;5051826;28;20464;-48
2022/10/17 10:39:43;;;;;;;0.38;0.15;;;23.70;61.80;;;;;;5044938;28;20037;-48
2022/10/17 10:42:21;;;;;;;2.83;0.77;;;23.60;61.80;;;;;;5051748;28;20037;-51
2022/10/17 10:44:49;;;;;;;2.05;0.47;;;23.60;61.90;;;;;;5051596;28;20047;-50
2022/10/17 10:47:20;;;;;;;2.15;0.68;;;23.60;61.90;;;;;;5051393;28;20041;-47
2022/10/17 10:49:50;;;;;;;2.60;0.52;;;23.60;61.90;;;;;;5050895;28;20048;-48
2022/10/17 10:52:29;;;;;;;1.50;0.35;;;23.60;62.50;;;;;;5051036;28;20055;-48
2022/10/17 10:55:04;;;;;;;1.27;0.20;;;23.70;62.10;;;;;;5051600;28;20053;-48
2022/10/17 10:57:35;;;;;;;0.77;0.20;;;23.70;62.20;;;;;;5050250;28;20037;-48
2022/10/17 11:00:08;;;;;;;2.88;0.90;;;23.70;62.30;;;;;;5049892;28;20065;-49
2022/10/17 11:02:42;;;;;;;1.40;1.10;;;23.70;62.30;;;;;;5051172;28;20041;-47
2022/10/17 11:05:16;;;;;;;0.60;0.30;;;23.70;62.30;;;;;;5044959;28;20501;-49
2022/10/17 11:07:51;;;;;;;1.67;0.20;;;23.70;62.30;;;;;;5050986;28;20037;-48
2022/10/17 11:10:22;;;;;;;3.35;0.60;;;23.70;62.30;;;;;;5051524;28;20072;-50
2022/10/17 11:12:56;;;;;;;1.80;1.02;;;23.70;62.40;;;;;;5051522;28;20051;-54
2022/10/17 11:15:27;;;;;;;1.08;0.22;;;23.70;62.50;;;;;;5051288;28;20128;-53
2022/10/17 11:18:00;;;;;;;2.08;0.50;;;23.70;62.50;;;;;;5051182;28;20128;-50
2022/10/17 11:20:33;;;;;;;0.75;0.20;;;23.70;62.50;;;;;;5051116;28;20045;-48
2022/10/17 11:23:18;;;;;;;2.05;0.40;;;23.70;62.50;;;;;;5050994;28;20386;-51
2022/10/17 11:25:47;;;;;;;0.93;0.30;;;23.80;62.60;;;;;;5050747;28;20099;-47
2022/10/17 11:28:17;;;;;;;3.22;0.30;;;23.80;62.70;;;;;;5050598;28;20083;-47
2022/10/17 11:30:50;;;;;;;0.93;0.50;;;23.80;62.70;;;;;;5050956;28;20076;-48
2022/10/17 11:33:25;;;;;;;1.75;0.65;;;23.80;62.70;;;;;;5050424;28;20164;-49
2022/10/17 11:35:57;;;;;;;1.27;0.50;;;23.80;62.60;;;;;;5047653;28;20036;-48
2022/10/17 11:38:36;;;;;;;1.42;0.30;;;23.80;62.60;;;;;;5048789;28;20043;-48
2022/10/17 11:41:06;;;;;;;1.40;0.57;;;23.80;62.60;;;;;;5050658;28;20041;-52
2022/10/17 11:43:38;;;;;;;0.70;0.52;;;23.80;62.70;;;;;;5050494;28;20124;-51
2022/10/17 11:46:12;;;;;;;0.63;0.30;;;23.80;62.70;;;;;;5050254;28;20036;-47
2022/10/17 11:48:45;;;;;;;1.17;0.82;;;23.80;62.80;;;;;;5049856;28;20076;-48
2022/10/17 11:51:14;;;;;;;1.90;0.80;;;23.80;62.70;;;;;;5044450;28;20045;-49
2022/10/17 11:53:52;;;;;;;4.88;0.52;;;23.80;62.70;;;;;;5050172;28;20068;-47
2022/10/17 11:56:25;;;;;;;1.60;0.35;;;23.80;62.60;;;;;;5050272;28;20041;-48
2022/10/17 11:58:56;;;;;;;1.70;0.85;;;23.90;62.70;;;;;;5050421;28;20041;-52
2022/10/17 12:01:32;;;;;;;0.63;0.30;;;23.80;62.60;;;;;;5049664;28;20409;-48
2022/10/17 12:04:11;;;;;;;0.43;0.25;;;23.90;62.70;;;;;;5049941;28;20041;-48
2022/10/17 12:06:49;;;;;;;2.08;0.30;;;23.90;62.70;;;;;;5049654;28;20094;-48
2022/10/17 12:09:26;;;;;;;1.35;0.20;;;23.80;62.70;;;;;;5044650;28;20577;-50
2022/10/17 12:11:55;;;;;;;3.97;0.50;;;23.90;62.80;;;;;;5050126;28;20517;-49
2022/10/17 12:14:37;;;;;;;1.70;0.22;;;23.80;62.80;;;;;;5050294;28;20041;-49
2022/10/17 12:17:06;;;;;;;3.17;0.30;;;23.90;62.80;;;;;;5049236;28;20533;-51
2022/10/17 12:19:35;;;;;;;1.48;0.32;;;23.80;62.80;;;;;;5049763;28;20410;-49
2022/10/17 12:22:21;;;;;;;3.13;0.60;;;23.80;62.80;;;;;;5049696;28;20152;-51
2022/10/17 12:24:57;;;;;;;;;;;23.80;62.80;;;;;;5043433;28;20057;-51
2022/10/17 12:27:41;;;;;;;1.02;0.15;;;23.80;62.70;;;;;;5044831;28;20569;-47
2022/10/17 12:30:23;;;;;;;0.30;0.20;;;23.80;62.90;;;;;;5049332;28;20047;-47
2022/10/17 12:33:00;;;;;;;1.60;0.20;;;23.80;63.00;;;;;;5049433;28;20033;-48
2022/10/17 12:35:29;;;;;;;1.20;0.65;;;23.80;63.00;;;;;;5043254;28;20128;-49
2022/10/17 12:38:28;;;;;;;1.50;0.20;;;23.80;63.10;;;;;;5043071;28;20660;-54
2022/10/17 12:41:04;;;;;;;1.42;0.50;;;23.80;63.20;;;;;;5047666;28;20110;-52
2022/10/17 12:43:48;;;;;;;2.85;0.43;;;23.80;63.20;;;;;;5049774;28;20045;-50
2022/10/17 12:46:54;;;;;;;0.65;0.40;;;23.80;63.20;;;;;;5043765;28;20068;-48
2022/10/17 12:49:48;;;;;;;3.97;0.30;;;23.80;63.30;;;;;;5047172;28;20045;-48
2022/10/17 12:52:22;;;;;;;1.98;0.52;;;23.80;63.20;;;;;;5049433;28;20155;-51
2022/10/17 12:55:00;;;;;;;0.43;0.32;;;23.80;63.30;;;;;;5049112;28;20547;-52
2022/10/17 12:57:35;;;;;;;1.42;0.50;;;23.80;63.30;;;;;;5049157;28;20060;-47
2022/10/17 13:00:12;;;;;;;1.40;0.40;;;23.80;63.40;;;;;;5047566;28;20060;-52
2022/10/17 13:02:41;;;;;;;0.65;0.47;;;23.80;63.40;;;;;;5043748;28;20120;-48
2022/10/17 13:05:16;;;;;;;0.52;0.22;;;23.80;63.40;;;;;;5048930;28;20044;-49
2022/10/17 13:07:45;;;;;;;1.57;0.50;;;23.80;63.30;;;;;;5048954;28;20132;-48
2022/10/17 13:10:22;;;;;;;3.45;0.30;;;23.80;63.30;;;;;;5049112;28;20292;-50
2022/10/17 13:12:53;;;;;;;2.55;0.77;;;23.80;63.20;;;;;;5049084;28;20139;-48